Time;durP1;ratioP1;P1;durP2;ratioP2;P2;SDS_P1;SDS_P2;PMS_P1;PMS_P2;Temp;Humidity;BMP_temperature;BMP_pressure;BME280_temperature;BME280_humidity;BME280_pressure;Samples;Min_cycle;Max_cycle;Signal;HPM_P1;HPM_P2
2021/12/09 00:00:43;;;;;;;52.58;29.58;;;3.40;98.70;;;;;;5134552;27;20226;-65
2021/12/09 00:03:11;;;;;;;40.63;26.58;;;3.40;98.90;;;;;;5134804;27;20229;-65
2021/12/09 00:05:42;;;;;;;41.45;26.17;;;3.30;98.90;;;;;;5133782;27;20238;-65
2021/12/09 00:08:11;;;;;;;40.53;26.10;;;3.30;99.00;;;;;;5134487;27;20297;-65
2021/12/09 00:10:38;;;;;;;44.13;27.98;;;3.30;99.10;;;;;;5133764;27;20257;-65
2021/12/09 00:13:06;;;;;;;44.60;28.50;;;3.30;99.10;;;;;;5134340;27;20222;-65
2021/12/09 00:15:34;;;;;;;46.67;29.08;;;3.30;99.00;;;;;;5133828;27;20699;-65
2021/12/09 00:18:01;;;;;;;46.75;27.35;;;3.20;98.90;;;;;;5134226;27;20237;-65
2021/12/09 00:20:28;;;;;;;39.42;28.02;;;3.10;99.10;;;;;;5133259;27;20230;-65
2021/12/09 00:22:55;;;;;;;51.78;29.27;;;3.20;99.30;;;;;;5134379;27;20232;-65
2021/12/09 00:25:23;;;;;;;50.10;29.33;;;3.10;99.00;;;;;;5119796;27;20241;-65
2021/12/09 00:27:51;;;;;;;50.38;29.80;;;3.10;99.00;;;;;;5132767;27;20226;-65
2021/12/09 00:30:19;;;;;;;47.45;29.50;;;3.10;99.20;;;;;;5128982;27;20575;-65
2021/12/09 00:32:47;;;;;;;53.15;30.33;;;3.10;99.10;;;;;;5127845;27;20307;-65
2021/12/09 00:35:16;;;;;;;48.45;27.75;;;3.00;99.10;;;;;;5130613;27;20218;-64
2021/12/09 00:37:53;;;;;;;51.08;29.45;;;2.90;99.10;;;;;;5133759;27;20293;-65
2021/12/09 00:40:20;;;;;;;46.78;28.67;;;2.80;99.30;;;;;;5133333;27;20226;-65
2021/12/09 00:42:50;;;;;;;54.45;32.35;;;2.80;99.30;;;;;;5133604;27;20234;-65
2021/12/09 00:45:18;;;;;;;50.72;33.47;;;2.70;99.60;;;;;;5129454;27;20290;-65
2021/12/09 00:47:46;;;;;;;51.45;34.35;;;2.70;99.60;;;;;;5133527;27;20810;-65
2021/12/09 00:50:13;;;;;;;51.08;32.60;;;2.70;99.60;;;;;;5133593;27;20225;-65
2021/12/09 00:52:40;;;;;;;49.50;31.75;;;2.80;99.70;;;;;;5133229;27;20226;-65
2021/12/09 00:55:10;;;;;;;53.17;30.63;;;2.80;99.90;;;;;;5133863;27;20218;-65
2021/12/09 00:57:37;;;;;;;57.97;34.75;;;2.80;99.70;;;;;;5132573;27;20242;-65
2021/12/09 01:00:09;;;;;;;59.13;31.13;;;2.70;99.40;;;;;;5133070;27;20222;-65
2021/12/09 01:02:36;;;;;;;54.55;31.00;;;2.70;99.30;;;;;;5133156;27;20221;-65
2021/12/09 01:05:06;;;;;;;50.17;29.83;;;2.70;99.40;;;;;;5133379;27;20227;-65
2021/12/09 01:07:34;;;;;;;50.60;31.23;;;2.80;99.60;;;;;;5132796;27;20237;-65
2021/12/09 01:10:01;;;;;;;54.60;31.60;;;2.70;99.50;;;;;;5133646;27;20683;-65
2021/12/09 01:12:28;;;;;;;55.58;31.30;;;2.60;99.60;;;;;;5132911;27;20249;-65
2021/12/09 01:14:55;;;;;;;52.30;32.70;;;2.60;99.70;;;;;;5133552;27;20221;-65
2021/12/09 01:17:23;;;;;;;56.17;32.33;;;2.60;99.70;;;;;;5133443;27;20300;-65
2021/12/09 01:19:52;;;;;;;50.85;30.33;;;2.60;99.70;;;;;;5132922;27;20976;-65
2021/12/09 01:22:20;;;;;;;56.03;32.90;;;2.60;99.80;;;;;;5133321;27;20220;-65
2021/12/09 01:24:47;;;;;;;51.00;31.25;;;2.60;99.90;;;;;;5132823;27;20248;-65
2021/12/09 01:27:14;;;;;;;55.05;31.55;;;2.60;99.90;;;;;;5133387;27;20222;-65
2021/12/09 01:29:42;;;;;;;55.92;33.80;;;2.60;99.80;;;;;;5132647;27;20733;-65
2021/12/09 01:32:12;;;;;;;53.97;30.75;;;2.50;99.80;;;;;;5133583;27;20222;-65
2021/12/09 01:34:40;;;;;;;52.38;33.65;;;2.50;99.80;;;;;;5120468;27;20238;-65
2021/12/09 01:37:07;;;;;;;58.28;34.72;;;2.50;99.80;;;;;;5133374;27;20563;-65
2021/12/09 01:39:35;;;;;;;59.92;34.65;;;2.50;99.90;;;;;;5132825;27;20222;-65
2021/12/09 01:42:02;;;;;;;57.50;33.50;;;2.60;99.90;;;;;;5133095;27;20232;-64
2021/12/09 01:44:29;;;;;;;54.53;33.25;;;2.60;99.90;;;;;;5132748;27;20378;-64
2021/12/09 01:46:57;;;;;;;56.08;32.97;;;2.70;99.90;;;;;;5132970;27;20218;-65
2021/12/09 01:49:24;;;;;;;56.33;33.95;;;2.80;99.90;;;;;;5133204;27;20703;-64
2021/12/09 01:51:53;;;;;;;52.63;31.35;;;2.90;99.90;;;;;;5132586;27;20229;-64
2021/12/09 01:54:23;;;;;;;54.63;33.08;;;3.00;99.80;;;;;;5133053;27;20224;-64
2021/12/09 01:56:54;;;;;;;50.45;32.20;;;3.00;99.60;;;;;;5132661;27;20290;-64
2021/12/09 01:59:21;;;;;;;50.95;34.42;;;3.00;99.50;;;;;;5119477;27;20668;-64
2021/12/09 02:01:48;;;;;;;54.88;34.35;;;3.10;99.40;;;;;;5120341;27;20214;-65
2021/12/09 02:04:15;;;;;;;59.28;33.13;;;3.10;99.10;;;;;;5132808;27;20225;-64
2021/12/09 02:06:43;;;;;;;52.15;32.67;;;3.10;99.10;;;;;;5132500;27;20238;-64
2021/12/09 02:09:13;;;;;;;56.70;33.70;;;3.10;98.90;;;;;;5132932;27;20218;-64
2021/12/09 02:11:40;;;;;;;50.97;32.63;;;3.10;99.00;;;;;;5132899;27;20218;-65
2021/12/09 02:14:09;;;;;;;54.47;33.35;;;3.10;99.00;;;;;;5136900;27;20229;-64
2021/12/09 02:16:36;;;;;;;52.28;33.38;;;3.10;99.10;;;;;;5136208;27;20743;-64
2021/12/09 02:19:04;;;;;;;60.53;34.08;;;3.10;99.10;;;;;;5136368;27;20217;-64
2021/12/09 02:21:34;;;;;;;54.70;32.28;;;3.10;99.10;;;;;;5136016;27;20214;-65
2021/12/09 02:24:04;;;;;;;59.72;34.03;;;3.10;98.90;;;;;;5136054;27;20240;-64
2021/12/09 02:26:35;;;;;;;54.00;33.50;;;3.10;98.90;;;;;;5133025;27;20676;-65
2021/12/09 02:29:04;;;;;;;56.15;31.35;;;3.00;98.90;;;;;;5135862;27;20221;-65
2021/12/09 02:31:32;;;;;;;50.22;30.38;;;3.00;99.00;;;;;;5135816;27;20225;-65
2021/12/09 02:34:00;;;;;;;51.67;32.53;;;3.10;99.20;;;;;;5127028;27;20680;-65
2021/12/09 02:36:30;;;;;;;50.80;31.42;;;3.00;99.10;;;;;;5129801;27;20222;-65
2021/12/09 02:38:58;;;;;;;56.90;32.35;;;3.10;99.10;;;;;;5126688;27;21006;-65
2021/12/09 02:41:27;;;;;;;52.80;32.40;;;3.10;99.10;;;;;;5135938;27;20282;-65
2021/12/09 02:43:57;;;;;;;51.90;32.70;;;3.10;98.90;;;;;;5135666;27;20228;-65
2021/12/09 02:46:26;;;;;;;54.03;31.45;;;3.10;99.00;;;;;;5135937;27;20232;-65
2021/12/09 02:48:54;;;;;;;56.10;34.85;;;3.10;99.00;;;;;;5135483;27;20226;-65
2021/12/09 02:51:21;;;;;;;51.92;31.65;;;3.00;99.10;;;;;;5135510;27;20222;-65
2021/12/09 02:53:48;;;;;;;52.05;32.22;;;3.00;99.10;;;;;;5135480;27;20241;-65
2021/12/09 02:56:17;;;;;;;55.65;33.33;;;3.00;99.10;;;;;;5135659;27;20569;-65
2021/12/09 02:58:44;;;;;;;57.70;32.22;;;3.10;99.10;;;;;;5135183;27;20605;-65
2021/12/09 03:01:15;;;;;;;50.67;34.53;;;3.10;99.10;;;;;;5136174;27;20237;-65
2021/12/09 03:03:49;;;;;;;55.50;31.33;;;3.10;98.80;;;;;;5135276;27;20718;-65
2021/12/09 03:06:21;;;;;;;56.17;32.80;;;3.10;98.80;;;;;;5135506;27;20304;-65
2021/12/09 03:08:49;;;;;;;59.40;34.28;;;2.90;98.90;;;;;;5135167;27;20567;-66
2021/12/09 03:11:21;;;;;;;64.68;35.08;;;2.80;99.00;;;;;;5135583;27;20222;-64
2021/12/09 03:13:50;;;;;;;49.15;31.80;;;2.80;99.20;;;;;;5134544;27;20226;-64
2021/12/09 03:16:22;;;;;;;53.17;31.27;;;2.70;99.30;;;;;;5135500;27;20680;-64
2021/12/09 03:18:51;;;;;;;53.30;32.15;;;2.70;99.40;;;;;;5121907;27;20218;-64
2021/12/09 03:21:20;;;;;;;48.90;28.55;;;2.70;99.50;;;;;;5135149;27;20249;-64
2021/12/09 03:23:47;;;;;;;56.75;34.85;;;2.80;99.70;;;;;;5134499;27;20482;-64
2021/12/09 03:26:18;;;;;;;53.70;32.03;;;2.80;99.60;;;;;;5131989;27;20222;-65
2021/12/09 03:28:45;;;;;;;56.28;33.60;;;2.70;99.50;;;;;;5134571;27;20218;-64
2021/12/09 03:31:12;;;;;;;55.60;32.08;;;2.70;99.60;;;;;;5134930;27;20225;-64
2021/12/09 03:33:39;;;;;;;55.72;32.25;;;2.70;99.40;;;;;;5128352;27;20684;-64
2021/12/09 03:36:07;;;;;;;58.33;35.53;;;2.60;99.50;;;;;;5129117;27;20222;-65
2021/12/09 03:38:35;;;;;;;57.00;33.00;;;2.60;99.70;;;;;;5135026;27;20222;-64
2021/12/09 03:41:03;;;;;;;59.22;34.72;;;2.70;99.80;;;;;;5134673;27;20228;-64
2021/12/09 03:43:33;;;;;;;57.28;33.90;;;2.80;99.90;;;;;;5124607;27;20229;-64
2021/12/09 03:46:00;;;;;;;55.50;33.50;;;2.70;99.70;;;;;;5134280;27;20222;-64
2021/12/09 03:48:29;;;;;;;60.05;34.30;;;2.90;99.80;;;;;;5134902;27;20222;-64
2021/12/09 03:50:56;;;;;;;56.30;33.20;;;2.90;99.70;;;;;;5133924;27;20234;-64
2021/12/09 03:53:24;;;;;;;51.13;34.25;;;2.90;99.50;;;;;;5134694;27;20621;-64
2021/12/09 03:55:52;;;;;;;48.90;32.90;;;2.90;99.50;;;;;;5134472;27;20579;-64
2021/12/09 03:58:20;;;;;;;56.65;34.47;;;2.80;99.30;;;;;;5134587;27;20229;-64
2021/12/09 04:00:49;;;;;;;57.28;35.30;;;2.90;99.30;;;;;;5134069;27;20236;-65
2021/12/09 04:03:18;;;;;;;57.78;36.17;;;2.90;99.30;;;;;;5134666;27;20221;-64
2021/12/09 04:05:45;;;;;;;56.58;34.53;;;2.90;99.40;;;;;;5133806;27;20218;-64
2021/12/09 04:08:12;;;;;;;57.20;35.40;;;2.90;99.40;;;;;;5134471;27;20240;-64
2021/12/09 04:10:40;;;;;;;54.33;35.30;;;2.80;99.50;;;;;;5134371;27;20605;-64
2021/12/09 04:13:07;;;;;;;55.85;35.47;;;2.90;99.60;;;;;;5133878;27;21054;-64
2021/12/09 04:15:34;;;;;;;53.90;34.25;;;2.80;99.50;;;;;;5134346;27;20676;-64
2021/12/09 04:18:03;;;;;;;53.05;33.92;;;2.80;99.40;;;;;;5134009;27;20222;-64
2021/12/09 04:20:30;;;;;;;52.85;33.35;;;2.70;99.40;;;;;;5134104;27;20700;-66
2021/12/09 04:22:57;;;;;;;57.80;32.42;;;2.80;99.70;;;;;;5133585;27;20295;-63
2021/12/09 04:25:26;;;;;;;53.58;33.70;;;2.80;99.70;;;;;;5134211;27;20218;-63
2021/12/09 04:27:55;;;;;;;53.90;31.83;;;2.80;99.70;;;;;;5120444;27;20230;-64
2021/12/09 04:30:24;;;;;;;59.67;34.83;;;2.80;99.60;;;;;;5128461;27;20760;-64
2021/12/09 04:32:52;;;;;;;50.75;33.00;;;2.80;99.40;;;;;;5133789;27;20217;-64
2021/12/09 04:35:21;;;;;;;55.75;31.90;;;2.70;99.60;;;;;;5127978;27;20229;-64
2021/12/09 04:37:49;;;;;;;60.08;37.20;;;2.80;99.70;;;;;;5133413;27;20218;-64
2021/12/09 04:40:17;;;;;;;61.50;36.10;;;2.70;99.60;;;;;;5133731;27;20311;-64
2021/12/09 04:42:45;;;;;;;57.03;35.30;;;2.70;99.60;;;;;;5133437;27;20226;-65
2021/12/09 04:45:12;;;;;;;57.83;35.00;;;2.70;99.80;;;;;;5133805;27;20225;-65
2021/12/09 04:47:41;;;;;;;55.55;35.03;;;2.70;99.90;;;;;;5133775;27;20671;-65
2021/12/09 04:50:10;;;;;;;57.70;31.38;;;2.70;99.80;;;;;;5133176;27;20335;-64
2021/12/09 04:52:38;;;;;;;54.40;34.38;;;2.60;99.80;;;;;;5133546;27;20222;-64
2021/12/09 04:55:08;;;;;;;54.47;34.83;;;2.60;99.80;;;;;;5133198;27;20221;-64
2021/12/09 04:57:35;;;;;;;56.85;34.17;;;2.50;99.80;;;;;;5133778;27;20222;-64
2021/12/09 05:00:06;;;;;;;57.22;33.65;;;2.50;99.90;;;;;;5132857;27;20233;-64
2021/12/09 05:02:46;;;;;;;58.35;34.95;;;2.50;99.90;;;;;;5130887;27;20222;-65
2021/12/09 05:05:13;;;;;;;58.95;32.78;;;2.50;99.90;;;;;;5121475;27;20998;-65
2021/12/09 05:07:42;;;;;;;57.47;34.20;;;2.60;99.90;;;;;;5133411;27;20226;-65
2021/12/09 05:10:09;;;;;;;53.38;35.03;;;2.60;99.90;;;;;;5133019;27;20302;-65
2021/12/09 05:12:36;;;;;;;50.42;30.85;;;2.60;99.90;;;;;;5132572;27;20233;-65
2021/12/09 05:15:04;;;;;;;56.30;33.22;;;2.60;99.90;;;;;;5131201;27;20240;-65
2021/12/09 05:17:32;;;;;;;56.60;32.05;;;2.70;99.90;;;;;;5132882;27;20228;-65
2021/12/09 05:19:58;;;;;;;55.53;34.40;;;2.70;99.90;;;;;;5133009;27;20291;-65
2021/12/09 05:22:25;;;;;;;51.03;32.83;;;2.70;99.80;;;;;;5133230;27;20593;-65
2021/12/09 05:24:54;;;;;;;62.00;33.42;;;2.80;99.90;;;;;;5133176;27;20579;-65
2021/12/09 05:27:21;;;;;;;55.03;30.48;;;2.70;99.80;;;;;;5133184;27;20230;-65
2021/12/09 05:30:04;;;;;;;48.85;32.17;;;2.60;99.90;;;;;;5133280;27;20225;-65
2021/12/09 05:32:31;;;;;;;49.95;30.08;;;2.60;99.90;;;;;;5133471;27;20749;-63
2021/12/09 05:34:59;;;;;;;55.15;34.40;;;2.60;99.90;;;;;;5127291;27;20540;-65
2021/12/09 05:37:27;;;;;;;52.83;31.27;;;2.60;99.90;;;;;;5133286;27;20237;-64
2021/12/09 05:39:57;;;;;;;57.83;34.67;;;2.70;99.90;;;;;;5132707;27;20233;-64
2021/12/09 05:42:25;;;;;;;55.65;31.95;;;2.70;99.90;;;;;;5133097;27;20222;-65
2021/12/09 05:44:53;;;;;;;45.97;28.55;;;2.70;99.90;;;;;;5132927;27;20230;-64
2021/12/09 05:47:20;;;;;;;50.55;30.70;;;2.70;99.90;;;;;;5122811;27;20225;-64
2021/12/09 05:49:49;;;;;;;56.65;33.25;;;2.70;99.90;;;;;;5136675;27;20678;-64
2021/12/09 05:52:17;;;;;;;54.83;33.72;;;2.70;99.90;;;;;;5136987;27;20309;-64
2021/12/09 05:54:45;;;;;;;52.38;32.50;;;2.80;99.90;;;;;;5136462;27;20541;-64
2021/12/09 05:57:14;;;;;;;55.95;32.72;;;2.80;99.90;;;;;;5137232;27;20217;-65
2021/12/09 05:59:41;;;;;;;59.17;36.30;;;2.80;99.90;;;;;;5136333;27;20225;-64
2021/12/09 06:02:09;;;;;;;55.50;33.47;;;2.90;99.90;;;;;;5136838;27;20218;-64
2021/12/09 06:04:36;;;;;;;56.05;31.55;;;2.90;99.90;;;;;;5131779;27;20218;-64
2021/12/09 06:07:04;;;;;;;50.53;31.08;;;2.90;99.90;;;;;;5136807;27;20688;-64
2021/12/09 06:09:31;;;;;;;52.85;31.63;;;2.90;99.90;;;;;;5136479;27;20226;-64
2021/12/09 06:11:58;;;;;;;60.55;33.55;;;2.90;99.90;;;;;;5136293;27;20233;-64
2021/12/09 06:14:26;;;;;;;63.35;36.60;;;2.90;99.90;;;;;;5136580;27;20583;-64
2021/12/09 06:16:53;;;;;;;57.88;34.08;;;2.90;99.90;;;;;;5136309;27;20229;-64
2021/12/09 06:19:21;;;;;;;52.50;33.58;;;3.00;99.90;;;;;;5136451;27;20242;-64
2021/12/09 06:21:48;;;;;;;60.40;32.95;;;3.00;99.90;;;;;;5135944;27;20279;-65
2021/12/09 06:24:15;;;;;;;64.13;35.63;;;3.00;99.90;;;;;;5136221;27;20217;-64
2021/12/09 06:26:42;;;;;;;57.03;32.72;;;3.00;99.90;;;;;;5136184;27;20683;-65
2021/12/09 06:29:09;;;;;;;56.28;32.85;;;3.10;99.90;;;;;;5136206;27;20222;-65
2021/12/09 06:31:38;;;;;;;50.80;32.03;;;3.10;99.90;;;;;;5136339;27;20221;-65
2021/12/09 06:34:05;;;;;;;52.20;32.70;;;3.20;99.90;;;;;;5130485;27;20474;-65
2021/12/09 06:36:32;;;;;;;50.45;29.83;;;3.20;99.90;;;;;;5136274;27;20225;-65
2021/12/09 06:38:59;;;;;;;53.78;31.42;;;3.20;99.90;;;;;;5134325;27;20229;-65
2021/12/09 06:41:26;;;;;;;53.72;32.10;;;3.20;99.90;;;;;;5135818;27;20235;-65
2021/12/09 06:43:53;;;;;;;60.67;33.10;;;3.10;99.90;;;;;;5135842;27;20386;-64
2021/12/09 06:46:20;;;;;;;57.95;36.17;;;3.20;99.90;;;;;;5136403;27;20229;-64
2021/12/09 06:48:48;;;;;;;51.85;34.08;;;3.10;99.90;;;;;;5135919;27;20244;-65
2021/12/09 06:51:15;;;;;;;57.47;35.47;;;3.10;99.90;;;;;;5135996;27;20571;-64
2021/12/09 06:53:42;;;;;;;60.65;34.90;;;3.20;99.90;;;;;;5135789;27;20230;-65
2021/12/09 06:56:09;;;;;;;55.47;32.83;;;3.10;99.90;;;;;;5135930;27;20228;-66
2021/12/09 06:58:36;;;;;;;60.83;36.72;;;3.20;99.90;;;;;;5135080;27;20298;-64
2021/12/09 07:01:05;;;;;;;57.85;34.70;;;3.10;99.90;;;;;;5135484;27;20230;-64
2021/12/09 07:03:33;;;;;;;63.65;37.60;;;3.00;99.90;;;;;;5135995;27;20222;-64
2021/12/09 07:06:06;;;;;;;61.97;37.17;;;3.00;99.90;;;;;;5135263;27;20241;-64
2021/12/09 07:08:35;;;;;;;67.18;36.47;;;3.00;99.90;;;;;;5135769;27;20214;-64
2021/12/09 07:11:03;;;;;;;61.55;37.03;;;3.00;99.90;;;;;;5135400;27;20759;-64
2021/12/09 07:13:30;;;;;;;59.47;35.67;;;3.00;99.90;;;;;;5135836;27;20218;-64
2021/12/09 07:15:58;;;;;;;54.58;34.35;;;3.00;99.90;;;;;;5135195;27;20282;-64
2021/12/09 07:18:25;;;;;;;58.65;33.35;;;3.00;99.90;;;;;;5135770;27;20253;-65
2021/12/09 07:20:52;;;;;;;64.55;35.03;;;3.00;99.90;;;;;;5135042;27;20575;-64
2021/12/09 07:23:21;;;;;;;63.83;37.80;;;3.00;99.90;;;;;;5135746;27;20262;-65
2021/12/09 07:25:48;;;;;;;58.78;35.65;;;3.00;99.90;;;;;;5135037;27;20226;-64
2021/12/09 07:28:15;;;;;;;53.42;34.85;;;3.00;99.90;;;;;;5135252;27;20229;-64
2021/12/09 07:30:43;;;;;;;50.85;33.90;;;3.00;99.90;;;;;;5135396;27;20222;-64
2021/12/09 07:33:10;;;;;;;60.95;34.97;;;3.00;99.90;;;;;;5135108;27;20218;-64
2021/12/09 07:35:39;;;;;;;56.67;30.40;;;3.00;99.90;;;;;;5135261;27;20233;-64
2021/12/09 07:38:06;;;;;;;57.58;34.30;;;3.10;99.90;;;;;;5134786;27;20309;-64
2021/12/09 07:40:35;;;;;;;53.40;32.83;;;3.10;99.90;;;;;;5135048;27;20229;-64
2021/12/09 07:43:02;;;;;;;56.70;34.67;;;3.10;99.90;;;;;;5134679;27;20225;-64
2021/12/09 07:45:29;;;;;;;55.47;34.38;;;3.10;99.90;;;;;;5135202;27;20572;-64
2021/12/09 07:47:56;;;;;;;53.38;34.47;;;3.10;99.90;;;;;;5134454;27;20226;-64
2021/12/09 07:50:26;;;;;;;57.65;33.78;;;3.10;99.90;;;;;;5134811;27;20241;-64
2021/12/09 07:52:53;;;;;;;58.40;32.40;;;3.10;99.90;;;;;;5134575;27;20226;-64
2021/12/09 07:55:22;;;;;;;52.25;33.50;;;3.10;99.90;;;;;;5134769;27;20222;-64
2021/12/09 07:57:51;;;;;;;56.90;34.25;;;3.10;99.90;;;;;;5134567;27;20221;-65
2021/12/09 08:00:20;;;;;;;57.47;35.60;;;3.10;99.90;;;;;;5134742;27;20222;-65
2021/12/09 08:02:49;;;;;;;62.28;36.60;;;3.10;99.90;;;;;;5134047;27;20234;-64
2021/12/09 08:05:18;;;;;;;59.03;35.00;;;3.10;99.90;;;;;;5134453;27;20218;-64
2021/12/09 08:07:45;;;;;;;62.47;36.10;;;3.20;99.90;;;;;;5134563;27;20226;-64
2021/12/09 08:10:15;;;;;;;58.60;33.63;;;3.10;99.90;;;;;;5133160;27;20230;-64
2021/12/09 08:12:42;;;;;;;50.00;33.10;;;3.10;99.90;;;;;;5134166;27;20229;-64
2021/12/09 08:15:13;;;;;;;60.83;36.03;;;3.10;99.90;;;;;;5134074;27;20246;-64
2021/12/09 08:18:00;;;;;;;54.90;37.25;;;3.00;99.90;;;;;;5134375;27;20226;-64
2021/12/09 08:20:28;;;;;;;61.28;37.42;;;3.10;99.90;;;;;;5134698;27;20676;-64
2021/12/09 08:22:55;;;;;;;60.00;33.78;;;3.10;99.90;;;;;;5133944;27;20238;-64
2021/12/09 08:25:24;;;;;;;59.88;36.70;;;3.00;99.90;;;;;;5134233;27;20221;-64
2021/12/09 08:27:51;;;;;;;60.70;36.42;;;3.00;99.90;;;;;;5133737;27;20237;-64
2021/12/09 08:30:22;;;;;;;60.05;35.50;;;3.00;99.90;;;;;;5134162;27;20692;-64
2021/12/09 08:32:49;;;;;;;62.15;36.92;;;3.00;99.90;;;;;;5133951;27;20233;-64
2021/12/09 08:35:16;;;;;;;60.53;36.45;;;3.00;99.90;;;;;;5134322;27;20218;-64
2021/12/09 08:37:44;;;;;;;65.20;36.90;;;3.10;99.90;;;;;;5133727;27;20566;-64
2021/12/09 08:40:13;;;;;;;62.80;37.03;;;3.10;99.90;;;;;;5133897;27;20222;-64
2021/12/09 08:42:41;;;;;;;56.05;38.25;;;3.10;99.90;;;;;;5133705;27;20229;-63
2021/12/09 08:45:10;;;;;;;60.78;36.58;;;3.10;99.90;;;;;;5134004;27;20221;-64
2021/12/09 08:47:39;;;;;;;59.90;34.97;;;3.20;99.90;;;;;;5133467;27;20222;-63
2021/12/09 08:50:09;;;;;;;60.13;36.25;;;3.20;99.90;;;;;;5133897;27;20225;-64
2021/12/09 08:52:36;;;;;;;64.50;38.10;;;3.20;99.90;;;;;;5133275;27;20710;-64
2021/12/09 08:55:05;;;;;;;62.90;36.97;;;3.20;99.90;;;;;;5133884;27;20559;-64
2021/12/09 08:57:32;;;;;;;66.60;38.15;;;3.20;99.90;;;;;;5133864;27;20214;-64
2021/12/09 08:59:59;;;;;;;61.80;36.78;;;3.20;99.90;;;;;;5133472;27;20282;-64
2021/12/09 09:02:27;;;;;;;56.75;33.63;;;3.20;99.90;;;;;;5133860;27;20374;-64
2021/12/09 09:04:57;;;;;;;65.93;38.83;;;3.20;99.90;;;;;;5133331;27;20225;-64
2021/12/09 09:07:24;;;;;;;59.05;36.45;;;3.20;99.90;;;;;;5133540;27;20226;-64
2021/12/09 09:09:51;;;;;;;62.35;37.17;;;3.20;99.90;;;;;;5133389;27;20226;-64
2021/12/09 09:12:18;;;;;;;63.40;35.95;;;3.10;99.90;;;;;;5133695;27;20567;-64
2021/12/09 09:14:45;;;;;;;59.88;37.78;;;3.10;99.90;;;;;;5133264;27;20222;-64
2021/12/09 09:17:12;;;;;;;58.55;37.42;;;3.10;99.90;;;;;;5133690;27;20214;-65
2021/12/09 09:19:39;;;;;;;63.53;38.42;;;3.10;99.90;;;;;;5133127;27;20388;-65
2021/12/09 09:22:08;;;;;;;59.42;34.05;;;3.00;99.90;;;;;;5136703;27;20221;-64
2021/12/09 09:24:35;;;;;;;57.33;36.90;;;3.10;99.90;;;;;;5138000;27;20225;-64
2021/12/09 09:27:02;;;;;;;60.80;37.47;;;3.10;99.90;;;;;;5137560;27;20798;-65
2021/12/09 09:29:32;;;;;;;55.03;36.45;;;3.20;99.90;;;;;;5137612;27;20233;-64
2021/12/09 09:31:59;;;;;;;55.97;34.47;;;3.20;99.90;;;;;;5137231;27;20241;-64
2021/12/09 09:34:26;;;;;;;55.70;34.95;;;3.20;99.90;;;;;;5137639;27;20224;-64
2021/12/09 09:36:53;;;;;;;62.95;35.65;;;3.20;99.90;;;;;;5137084;27;20221;-64
2021/12/09 09:39:28;;;;;;;63.30;37.05;;;3.10;99.90;;;;;;5137746;27;20616;-64
2021/12/09 09:42:01;;;;;;;51.45;34.75;;;3.10;99.90;;;;;;5137073;27;20224;-64
2021/12/09 09:44:34;;;;;;;54.67;34.53;;;3.10;99.90;;;;;;5137551;27;20250;-65
2021/12/09 09:47:03;;;;;;;59.90;37.38;;;3.20;99.90;;;;;;5136945;27;20388;-64
2021/12/09 09:49:34;;;;;;;53.65;33.78;;;3.20;99.90;;;;;;5137210;27;20240;-65
2021/12/09 09:52:01;;;;;;;59.92;35.38;;;3.20;99.90;;;;;;5136789;27;20226;-65
2021/12/09 09:54:29;;;;;;;53.00;34.65;;;3.30;99.90;;;;;;5137334;27;20229;-65
2021/12/09 09:56:56;;;;;;;53.17;36.25;;;3.30;99.90;;;;;;5136828;27;20230;-65
2021/12/09 09:59:23;;;;;;;55.13;36.30;;;3.40;99.90;;;;;;5137086;27;20568;-65
2021/12/09 10:01:53;;;;;;;62.50;36.45;;;3.40;99.90;;;;;;5136630;27;20229;-65
2021/12/09 10:04:32;;;;;;;60.58;37.33;;;3.40;99.90;;;;;;5137152;27;20218;-64
2021/12/09 10:07:00;;;;;;;63.80;35.58;;;3.40;99.90;;;;;;5136786;27;20222;-65
2021/12/09 10:09:28;;;;;;;51.55;34.05;;;3.40;99.90;;;;;;5136902;27;20590;-64
2021/12/09 10:11:56;;;;;;;55.47;35.30;;;3.50;99.90;;;;;;5136628;27;20668;-64
2021/12/09 10:14:26;;;;;;;60.17;36.33;;;3.50;99.90;;;;;;5137057;27;20241;-64
2021/12/09 10:17:05;;;;;;;57.40;35.38;;;3.60;99.90;;;;;;5136469;27;20301;-64
2021/12/09 10:19:34;;;;;;;53.25;34.13;;;3.60;99.90;;;;;;5136594;27;20234;-65
2021/12/09 10:22:10;;;;;;;53.13;34.40;;;3.60;99.90;;;;;;5136478;27;20214;-64
2021/12/09 10:24:40;;;;;;;53.85;35.60;;;3.60;99.90;;;;;;5136721;27;20221;-64
2021/12/09 10:27:09;;;;;;;46.72;33.45;;;3.60;99.90;;;;;;5136350;27;20214;-65
2021/12/09 10:29:41;;;;;;;56.13;35.50;;;3.70;99.90;;;;;;5136557;27;20249;-65
2021/12/09 10:32:11;;;;;;;57.10;34.75;;;3.70;99.90;;;;;;5135540;27;20295;-64
2021/12/09 10:34:40;;;;;;;50.50;32.85;;;3.70;99.90;;;;;;5136157;27;20226;-65
2021/12/09 10:37:14;;;;;;;52.45;32.38;;;3.70;99.90;;;;;;5136220;27;20264;-65
2021/12/09 10:39:47;;;;;;;50.25;34.42;;;3.70;99.90;;;;;;5136333;27;20241;-65
2021/12/09 10:42:17;;;;;;;51.58;33.70;;;3.70;99.90;;;;;;5136373;27;20251;-65
2021/12/09 10:44:47;;;;;;;50.10;33.85;;;3.70;99.90;;;;;;5136161;27;20533;-65
2021/12/09 10:47:23;;;;;;;54.22;33.90;;;3.60;99.90;;;;;;5135879;27;20222;-65
2021/12/09 10:50:05;;;;;;;53.75;34.35;;;3.60;99.90;;;;;;5135681;27;20320;-65
2021/12/09 10:52:41;;;;;;;55.63;35.38;;;3.60;99.90;;;;;;5136003;27;20303;-65
2021/12/09 10:55:16;;;;;;;56.95;34.58;;;3.70;99.90;;;;;;5135785;27;20226;-64
2021/12/09 10:57:43;;;;;;;53.53;36.30;;;3.70;99.90;;;;;;5136149;27;20218;-65
2021/12/09 11:00:24;;;;;;;51.38;34.72;;;3.60;99.90;;;;;;5135396;27;20233;-65
2021/12/09 11:03:03;;;;;;;57.55;36.25;;;3.60;99.90;;;;;;5135938;27;20229;-64
2021/12/09 11:05:30;;;;;;;55.15;34.58;;;3.50;99.90;;;;;;5136292;27;20210;-65
2021/12/09 11:08:17;;;;;;;51.10;35.58;;;3.50;99.90;;;;;;5135420;27;20229;-65
2021/12/09 11:10:49;;;;;;;57.40;35.60;;;3.50;99.90;;;;;;5135409;27;20242;-65
2021/12/09 11:13:19;;;;;;;48.55;32.30;;;3.60;99.90;;;;;;5135637;27;20548;-65
2021/12/09 11:15:52;;;;;;;55.40;33.75;;;3.60;99.90;;;;;;5135303;27;20249;-65
2021/12/09 11:18:34;;;;;;;51.92;33.40;;;3.70;99.90;;;;;;5135591;27;20680;-65
2021/12/09 11:21:03;;;;;;;57.80;33.92;;;3.70;99.90;;;;;;5135308;27;20221;-65
2021/12/09 11:23:33;;;;;;;49.05;30.60;;;3.80;99.90;;;;;;5135581;27;20541;-65
2021/12/09 11:26:43;;;;;;;53.70;34.00;;;3.80;99.90;;;;;;5135032;27;20218;-65
2021/12/09 11:29:14;;;;;;;52.80;32.15;;;3.80;99.90;;;;;;5134884;27;20218;-65
2021/12/09 11:31:52;;;;;;;51.58;33.75;;;3.80;99.90;;;;;;5135386;27;20233;-65
2021/12/09 11:34:23;;;;;;;53.85;34.55;;;3.80;99.90;;;;;;5134372;27;20555;-65
2021/12/09 11:36:56;;;;;;;53.30;35.60;;;3.90;99.90;;;;;;5129935;27;20243;-65
2021/12/09 11:39:31;;;;;;;51.83;35.45;;;3.80;99.90;;;;;;5113294;27;20218;-65
2021/12/09 11:42:05;;;;;;;49.13;32.03;;;3.90;99.90;;;;;;5113658;27;20233;-65
2021/12/09 11:44:34;;;;;;;54.47;34.28;;;3.90;99.90;;;;;;5113229;27;20802;-65
2021/12/09 11:47:02;;;;;;;56.38;32.95;;;3.80;99.90;;;;;;5113680;27;20229;-65
2021/12/09 11:49:29;;;;;;;51.28;32.97;;;3.70;99.90;;;;;;5113685;27;20234;-65
2021/12/09 11:51:56;;;;;;;49.28;33.03;;;3.70;99.90;;;;;;5114144;27;20230;-65
2021/12/09 11:54:24;;;;;;;47.45;31.83;;;3.80;99.90;;;;;;5113981;27;20305;-65
2021/12/09 12:11:31;;;;;;;44.95;30.33;;;3.90;99.90;;;;;;5087735;27;20253;-65
2021/12/09 12:14:03;;;;;;;52.65;33.72;;;4.00;99.90;;;;;;5113921;27;20302;-65
2021/12/09 12:19:30;;;;;;;54.17;34.42;;;4.00;99.90;;;;;;5113244;27;20563;-65
2021/12/09 12:22:28;;;;;;;51.33;32.15;;;4.00;99.90;;;;;;5113576;27;20687;-65
2021/12/09 12:25:12;;;;;;;49.30;33.97;;;4.00;99.90;;;;;;5113545;27;20612;-64
2021/12/09 12:30:57;;;;;;;49.65;34.40;;;4.00;99.90;;;;;;5097905;27;20671;-64
2021/12/09 12:34:06;;;;;;;57.22;33.58;;;4.00;99.90;;;;;;5113351;27;20226;-64
2021/12/09 12:40:07;;;;;;;54.53;32.78;;;4.10;99.90;;;;;;5083797;27;20670;-64
2021/12/09 12:42:51;;;;;;;52.15;32.30;;;4.10;99.90;;;;;;5133465;27;20222;-64
2021/12/09 12:49:01;;;;;;;58.75;35.17;;;4.10;99.90;;;;;;5128425;27;20226;-64
2021/12/09 12:51:34;;;;;;;54.63;33.10;;;4.10;99.90;;;;;;5120096;27;21009;-64
2021/12/09 12:54:23;;;;;;;58.78;36.40;;;4.00;99.90;;;;;;5133369;27;20226;-65
2021/12/09 12:56:55;;;;;;;53.08;33.13;;;4.00;99.90;;;;;;5132920;27;20567;-64
2021/12/09 12:59:29;;;;;;;53.72;34.45;;;4.00;99.90;;;;;;5133482;27;20233;-64
2021/12/09 13:02:33;;;;;;;56.83;33.97;;;4.00;99.90;;;;;;5133464;27;20305;-64
2021/12/09 13:05:08;;;;;;;54.35;33.28;;;4.00;99.90;;;;;;5122403;27;20218;-64
2021/12/09 13:08:10;;;;;;;57.53;34.95;;;3.90;99.90;;;;;;5132559;27;20247;-65
2021/12/09 13:10:48;;;;;;;54.13;35.13;;;4.00;99.90;;;;;;5133096;27;20529;-65
2021/12/09 13:13:25;;;;;;;57.33;34.30;;;4.00;99.90;;;;;;5133627;27;20576;-64
2021/12/09 13:16:10;;;;;;;55.45;35.00;;;4.00;99.90;;;;;;5120105;27;21010;-64